Terminal Aerodrome Forecast
Issued by NWS Upton, NY

Home | Current Version | Previous Version | Text Only | Print | Product List | Glossary On
Versions: 1 2 3 4 5 6 7 8 9 10 11 12 13 14 15 16 17 18 19 20 21 22 23 24 25
002
FTUS41 KOKX 132340
TAFJFK
TAF
KJFK 132340Z 1400/1506 31022G34KT P6SM SCT060
     FM140500 31019G27KT P6SM SKC
     FM141100 31017G24KT P6SM SKC
     FM141700 32014G21KT P6SM SKC
     FM142000 31010KT P6SM SKC
     FM150000 30007KT P6SM SKC=

USA.gov is the U.S. government's official web portal to all federal, state and local government web resources and services.